sensor_id;sensor_type;location;lat;lon;timestamp;P1;durP1;ratioP1;P2;durP2;ratioP2
4148;SDS011;2088;51.032;7.082;2022-08-19T00:00:25;11.87;;;8.17;;
4148;SDS011;2088;51.032;7.082;2022-08-19T00:02:52;11.63;;;8.40;;
4148;SDS011;2088;51.032;7.082;2022-08-19T00:05:20;11.70;;;7.40;;
4148;SDS011;2088;51.032;7.082;2022-08-19T00:07:48;16.37;;;9.20;;
4148;SDS011;2088;51.032;7.082;2022-08-19T00:10:15;15.93;;;8.07;;
4148;SDS011;2088;51.032;7.082;2022-08-19T00:12:44;12.17;;;9.47;;
4148;SDS011;2088;51.032;7.082;2022-08-19T00:15:11;11.20;;;8.50;;
4148;SDS011;2088;51.032;7.082;2022-08-19T00:17:41;8.90;;;6.90;;
4148;SDS011;2088;51.032;7.082;2022-08-19T00:20:09;14.63;;;8.73;;
4148;SDS011;2088;51.032;7.082;2022-08-19T00:22:38;11.67;;;8.63;;
4148;SDS011;2088;51.032;7.082;2022-08-19T00:25:06;11.07;;;8.20;;
4148;SDS011;2088;51.032;7.082;2022-08-19T00:27:34;10.13;;;8.20;;
4148;SDS011;2088;51.032;7.082;2022-08-19T00:30:00;9.40;;;7.57;;
4148;SDS011;2088;51.032;7.082;2022-08-19T00:32:28;13.00;;;8.90;;
4148;SDS011;2088;51.032;7.082;2022-08-19T00:34:55;17.37;;;8.20;;
4148;SDS011;2088;51.032;7.082;2022-08-19T00:37:22;12.13;;;6.97;;
4148;SDS011;2088;51.032;7.082;2022-08-19T00:39:52;11.00;;;9.07;;
4148;SDS011;2088;51.032;7.082;2022-08-19T00:42:20;14.90;;;9.57;;
4148;SDS011;2088;51.032;7.082;2022-08-19T00:44:47;13.67;;;8.50;;
4148;SDS011;2088;51.032;7.082;2022-08-19T00:47:15;28.53;;;9.70;;
4148;SDS011;2088;51.032;7.082;2022-08-19T00:49:43;15.43;;;9.70;;
4148;SDS011;2088;51.032;7.082;2022-08-19T00:52:16;10.43;;;6.67;;
4148;SDS011;2088;51.032;7.082;2022-08-19T00:54:45;28.23;;;9.03;;
4148;SDS011;2088;51.032;7.082;2022-08-19T00:57:15;17.67;;;7.50;;
4148;SDS011;2088;51.032;7.082;2022-08-19T00:59:46;20.17;;;10.27;;
4148;SDS011;2088;51.032;7.082;2022-08-19T01:02:17;13.57;;;8.37;;
4148;SDS011;2088;51.032;7.082;2022-08-19T01:04:44;16.90;;;8.57;;
4148;SDS011;2088;51.032;7.082;2022-08-19T01:07:11;9.10;;;7.10;;
4148;SDS011;2088;51.032;7.082;2022-08-19T01:09:38;13.80;;;8.80;;
4148;SDS011;2088;51.032;7.082;2022-08-19T01:12:05;14.30;;;8.27;;
4148;SDS011;2088;51.032;7.082;2022-08-19T01:14:33;15.03;;;9.33;;
4148;SDS011;2088;51.032;7.082;2022-08-19T01:17:02;13.17;;;7.80;;
4148;SDS011;2088;51.032;7.082;2022-08-19T01:19:30;10.00;;;7.43;;
4148;SDS011;2088;51.032;7.082;2022-08-19T01:22:02;11.67;;;9.00;;
4148;SDS011;2088;51.032;7.082;2022-08-19T01:24:33;12.20;;;8.43;;
4148;SDS011;2088;51.032;7.082;2022-08-19T01:26:59;14.10;;;7.67;;
4148;SDS011;2088;51.032;7.082;2022-08-19T01:29:29;14.47;;;9.10;;
4148;SDS011;2088;51.032;7.082;2022-08-19T01:31:56;15.43;;;8.77;;
4148;SDS011;2088;51.032;7.082;2022-08-19T01:34:23;10.13;;;7.20;;
4148;SDS011;2088;51.032;7.082;2022-08-19T01:36:50;14.30;;;10.70;;
4148;SDS011;2088;51.032;7.082;2022-08-19T01:39:17;8.47;;;6.57;;
4148;SDS011;2088;51.032;7.082;2022-08-19T01:41:48;10.60;;;8.30;;
4148;SDS011;2088;51.032;7.082;2022-08-19T01:44:15;24.70;;;8.87;;
4148;SDS011;2088;51.032;7.082;2022-08-19T01:46:45;13.83;;;8.10;;
4148;SDS011;2088;51.032;7.082;2022-08-19T01:49:14;15.67;;;9.10;;
4148;SDS011;2088;51.032;7.082;2022-08-19T01:51:42;15.77;;;8.97;;
4148;SDS011;2088;51.032;7.082;2022-08-19T01:54:09;11.67;;;8.83;;
4148;SDS011;2088;51.032;7.082;2022-08-19T01:56:37;12.87;;;8.23;;
4148;SDS011;2088;51.032;7.082;2022-08-19T01:59:06;17.10;;;9.90;;
4148;SDS011;2088;51.032;7.082;2022-08-19T02:01:38;11.80;;;8.23;;
4148;SDS011;2088;51.032;7.082;2022-08-19T02:04:04;10.10;;;7.40;;
4148;SDS011;2088;51.032;7.082;2022-08-19T02:06:31;13.47;;;9.20;;
4148;SDS011;2088;51.032;7.082;2022-08-19T02:08:58;15.33;;;9.60;;
4148;SDS011;2088;51.032;7.082;2022-08-19T02:11:26;9.83;;;6.83;;
4148;SDS011;2088;51.032;7.082;2022-08-19T02:13:55;10.87;;;7.60;;
4148;SDS011;2088;51.032;7.082;2022-08-19T02:16:23;8.33;;;7.10;;
4148;SDS011;2088;51.032;7.082;2022-08-19T02:18:50;14.63;;;9.47;;
4148;SDS011;2088;51.032;7.082;2022-08-19T02:21:18;18.30;;;9.00;;
4148;SDS011;2088;51.032;7.082;2022-08-19T02:23:45;12.40;;;9.27;;
4148;SDS011;2088;51.032;7.082;2022-08-19T02:26:12;11.43;;;7.30;;
4148;SDS011;2088;51.032;7.082;2022-08-19T02:28:39;11.37;;;8.47;;
4148;SDS011;2088;51.032;7.082;2022-08-19T02:31:08;17.33;;;10.47;;
4148;SDS011;2088;51.032;7.082;2022-08-19T02:33:37;12.47;;;7.40;;
4148;SDS011;2088;51.032;7.082;2022-08-19T02:36:04;14.10;;;8.17;;
4148;SDS011;2088;51.032;7.082;2022-08-19T02:38:31;9.77;;;7.53;;
4148;SDS011;2088;51.032;7.082;2022-08-19T02:40:58;13.27;;;9.43;;
4148;SDS011;2088;51.032;7.082;2022-08-19T02:43:27;11.63;;;8.37;;
4148;SDS011;2088;51.032;7.082;2022-08-19T02:45:55;12.63;;;7.50;;
4148;SDS011;2088;51.032;7.082;2022-08-19T02:48:23;15.97;;;8.30;;
4148;SDS011;2088;51.032;7.082;2022-08-19T02:50:52;12.00;;;8.43;;
4148;SDS011;2088;51.032;7.082;2022-08-19T02:53:20;10.90;;;7.63;;
4148;SDS011;2088;51.032;7.082;2022-08-19T02:55:50;11.80;;;7.63;;
4148;SDS011;2088;51.032;7.082;2022-08-19T02:58:17;13.67;;;8.90;;
4148;SDS011;2088;51.032;7.082;2022-08-19T03:00:45;17.43;;;9.90;;
4148;SDS011;2088;51.032;7.082;2022-08-19T03:03:13;12.70;;;9.40;;
4148;SDS011;2088;51.032;7.082;2022-08-19T03:05:41;9.63;;;7.53;;
4148;SDS011;2088;51.032;7.082;2022-08-19T03:08:10;11.03;;;7.13;;
4148;SDS011;2088;51.032;7.082;2022-08-19T03:10:41;11.50;;;9.03;;
4148;SDS011;2088;51.032;7.082;2022-08-19T03:13:10;19.70;;;7.87;;
4148;SDS011;2088;51.032;7.082;2022-08-19T03:15:41;15.07;;;8.37;;
4148;SDS011;2088;51.032;7.082;2022-08-19T03:18:09;10.60;;;8.40;;
4148;SDS011;2088;51.032;7.082;2022-08-19T03:20:39;12.40;;;7.97;;
4148;SDS011;2088;51.032;7.082;2022-08-19T03:23:07;10.50;;;9.37;;
4148;SDS011;2088;51.032;7.082;2022-08-19T03:25:37;10.63;;;8.10;;
4148;SDS011;2088;51.032;7.082;2022-08-19T03:28:05;10.17;;;7.73;;
4148;SDS011;2088;51.032;7.082;2022-08-19T03:30:32;10.30;;;8.07;;
4148;SDS011;2088;51.032;7.082;2022-08-19T03:32:58;9.27;;;6.70;;
4148;SDS011;2088;51.032;7.082;2022-08-19T03:35:25;9.53;;;7.17;;
4148;SDS011;2088;51.032;7.082;2022-08-19T03:37:52;8.10;;;7.30;;
4148;SDS011;2088;51.032;7.082;2022-08-19T03:40:18;13.00;;;8.10;;
4148;SDS011;2088;51.032;7.082;2022-08-19T03:42:46;14.90;;;10.03;;
4148;SDS011;2088;51.032;7.082;2022-08-19T03:45:12;12.50;;;8.40;;
4148;SDS011;2088;51.032;7.082;2022-08-19T03:47:39;11.57;;;8.77;;
4148;SDS011;2088;51.032;7.082;2022-08-19T03:50:05;11.77;;;7.63;;
4148;SDS011;2088;51.032;7.082;2022-08-19T03:52:33;14.47;;;9.10;;
4148;SDS011;2088;51.032;7.082;2022-08-19T03:55:00;15.47;;;9.70;;
4148;SDS011;2088;51.032;7.082;2022-08-19T03:57:27;13.07;;;8.40;;
4148;SDS011;2088;51.032;7.082;2022-08-19T03:59:55;12.80;;;8.33;;
4148;SDS011;2088;51.032;7.082;2022-08-19T04:02:21;11.43;;;8.30;;
4148;SDS011;2088;51.032;7.082;2022-08-19T04:04:48;11.57;;;8.47;;
4148;SDS011;2088;51.032;7.082;2022-08-19T04:07:14;13.13;;;8.50;;
4148;SDS011;2088;51.032;7.082;2022-08-19T04:09:43;11.00;;;7.20;;
4148;SDS011;2088;51.032;7.082;2022-08-19T04:12:09;13.70;;;8.10;;
4148;SDS011;2088;51.032;7.082;2022-08-19T04:14:36;11.37;;;8.00;;
4148;SDS011;2088;51.032;7.082;2022-08-19T04:17:03;12.00;;;9.27;;
4148;SDS011;2088;51.032;7.082;2022-08-19T04:19:30;12.97;;;8.20;;
4148;SDS011;2088;51.032;7.082;2022-08-19T04:21:58;9.60;;;7.97;;
4148;SDS011;2088;51.032;7.082;2022-08-19T04:24:25;13.57;;;8.30;;
4148;SDS011;2088;51.032;7.082;2022-08-19T04:26:52;14.07;;;9.57;;
4148;SDS011;2088;51.032;7.082;2022-08-19T04:29:20;15.53;;;9.10;;
4148;SDS011;2088;51.032;7.082;2022-08-19T04:31:50;9.47;;;6.70;;
4148;SDS011;2088;51.032;7.082;2022-08-19T04:34:21;9.03;;;6.97;;
4148;SDS011;2088;51.032;7.082;2022-08-19T04:36:49;9.67;;;7.47;;
4148;SDS011;2088;51.032;7.082;2022-08-19T04:39:17;9.97;;;7.30;;
4148;SDS011;2088;51.032;7.082;2022-08-19T04:41:45;14.40;;;7.70;;
4148;SDS011;2088;51.032;7.082;2022-08-19T04:44:30;11.83;;;8.33;;
4148;SDS011;2088;51.032;7.082;2022-08-19T04:46:58;10.13;;;7.40;;
4148;SDS011;2088;51.032;7.082;2022-08-19T04:49:25;10.20;;;7.73;;
4148;SDS011;2088;51.032;7.082;2022-08-19T04:51:53;11.50;;;9.03;;
4148;SDS011;2088;51.032;7.082;2022-08-19T04:54:20;10.87;;;7.97;;
4148;SDS011;2088;51.032;7.082;2022-08-19T04:56:49;13.30;;;9.10;;
4148;SDS011;2088;51.032;7.082;2022-08-19T04:59:16;14.67;;;9.53;;
4148;SDS011;2088;51.032;7.082;2022-08-19T05:01:44;27.43;;;10.33;;
4148;SDS011;2088;51.032;7.082;2022-08-19T05:04:15;13.47;;;9.67;;
4148;SDS011;2088;51.032;7.082;2022-08-19T05:06:44;12.67;;;9.57;;
4148;SDS011;2088;51.032;7.082;2022-08-19T05:09:12;14.83;;;9.20;;
4148;SDS011;2088;51.032;7.082;2022-08-19T05:11:38;10.60;;;8.10;;
4148;SDS011;2088;51.032;7.082;2022-08-19T05:14:05;15.97;;;9.33;;
4148;SDS011;2088;51.032;7.082;2022-08-19T05:16:32;14.93;;;6.97;;
4148;SDS011;2088;51.032;7.082;2022-08-19T05:18:58;10.00;;;8.13;;
4148;SDS011;2088;51.032;7.082;2022-08-19T05:21:44;11.97;;;7.10;;
4148;SDS011;2088;51.032;7.082;2022-08-19T05:24:28;11.60;;;7.40;;
4148;SDS011;2088;51.032;7.082;2022-08-19T05:26:59;11.60;;;8.00;;
4148;SDS011;2088;51.032;7.082;2022-08-19T05:29:28;10.87;;;7.80;;
4148;SDS011;2088;51.032;7.082;2022-08-19T05:31:56;11.23;;;7.50;;
4148;SDS011;2088;51.032;7.082;2022-08-19T05:34:24;12.80;;;7.10;;
4148;SDS011;2088;51.032;7.082;2022-08-19T05:36:53;12.00;;;7.00;;
4148;SDS011;2088;51.032;7.082;2022-08-19T05:39:22;16.37;;;8.10;;
4148;SDS011;2088;51.032;7.082;2022-08-19T05:41:51;14.80;;;7.60;;
4148;SDS011;2088;51.032;7.082;2022-08-19T05:44:19;12.10;;;7.90;;
4148;SDS011;2088;51.032;7.082;2022-08-19T05:46:46;10.93;;;8.37;;
4148;SDS011;2088;51.032;7.082;2022-08-19T05:49:14;23.93;;;6.37;;
4148;SDS011;2088;51.032;7.082;2022-08-19T05:51:41;11.20;;;7.87;;
4148;SDS011;2088;51.032;7.082;2022-08-19T05:54:11;13.30;;;8.70;;
4148;SDS011;2088;51.032;7.082;2022-08-19T05:56:38;10.13;;;7.30;;
4148;SDS011;2088;51.032;7.082;2022-08-19T05:59:06;13.30;;;8.60;;
4148;SDS011;2088;51.032;7.082;2022-08-19T06:01:34;15.77;;;6.83;;
4148;SDS011;2088;51.032;7.082;2022-08-19T06:04:02;18.80;;;7.50;;
4148;SDS011;2088;51.032;7.082;2022-08-19T06:06:29;9.73;;;7.47;;
4148;SDS011;2088;51.032;7.082;2022-08-19T06:08:58;14.33;;;8.77;;
4148;SDS011;2088;51.032;7.082;2022-08-19T06:11:33;14.90;;;9.67;;
4148;SDS011;2088;51.032;7.082;2022-08-19T06:14:02;13.70;;;7.73;;
4148;SDS011;2088;51.032;7.082;2022-08-19T06:16:33;9.47;;;8.23;;
4148;SDS011;2088;51.032;7.082;2022-08-19T06:19:01;15.87;;;10.20;;
4148;SDS011;2088;51.032;7.082;2022-08-19T06:21:29;20.30;;;8.97;;
4148;SDS011;2088;51.032;7.082;2022-08-19T06:23:57;18.70;;;10.63;;
4148;SDS011;2088;51.032;7.082;2022-08-19T06:26:24;18.47;;;11.03;;
4148;SDS011;2088;51.032;7.082;2022-08-19T06:28:52;22.97;;;12.30;;
4148;SDS011;2088;51.032;7.082;2022-08-19T06:31:25;21.43;;;10.40;;
4148;SDS011;2088;51.032;7.082;2022-08-19T06:33:53;18.27;;;13.30;;
4148;SDS011;2088;51.032;7.082;2022-08-19T06:36:20;24.87;;;13.50;;
4148;SDS011;2088;51.032;7.082;2022-08-19T06:38:56;25.60;;;14.10;;
4148;SDS011;2088;51.032;7.082;2022-08-19T06:41:24;24.20;;;12.20;;
4148;SDS011;2088;51.032;7.082;2022-08-19T06:43:51;26.23;;;12.87;;
4148;SDS011;2088;51.032;7.082;2022-08-19T06:46:19;24.53;;;14.93;;
4148;SDS011;2088;51.032;7.082;2022-08-19T06:48:46;28.27;;;14.90;;
4148;SDS011;2088;51.032;7.082;2022-08-19T06:51:13;26.77;;;15.23;;
4148;SDS011;2088;51.032;7.082;2022-08-19T06:53:43;25.47;;;15.73;;
4148;SDS011;2088;51.032;7.082;2022-08-19T06:56:11;32.03;;;19.20;;
4148;SDS011;2088;51.032;7.082;2022-08-19T06:58:38;31.93;;;18.50;;
4148;SDS011;2088;51.032;7.082;2022-08-19T07:01:06;36.37;;;17.23;;
4148;SDS011;2088;51.032;7.082;2022-08-19T07:03:33;27.23;;;17.63;;
4148;SDS011;2088;51.032;7.082;2022-08-19T07:06:02;31.83;;;16.90;;
4148;SDS011;2088;51.032;7.082;2022-08-19T07:08:29;34.47;;;16.90;;
4148;SDS011;2088;51.032;7.082;2022-08-19T07:10:56;31.60;;;16.63;;
4148;SDS011;2088;51.032;7.082;2022-08-19T07:13:23;43.80;;;16.17;;
4148;SDS011;2088;51.032;7.082;2022-08-19T07:15:50;31.37;;;15.60;;
4148;SDS011;2088;51.032;7.082;2022-08-19T07:18:18;30.37;;;17.63;;
4148;SDS011;2088;51.032;7.082;2022-08-19T07:20:46;33.03;;;17.20;;
4148;SDS011;2088;51.032;7.082;2022-08-19T07:23:13;28.57;;;15.67;;
4148;SDS011;2088;51.032;7.082;2022-08-19T07:25:40;32.73;;;16.23;;
4148;SDS011;2088;51.032;7.082;2022-08-19T07:28:08;32.93;;;14.37;;
4148;SDS011;2088;51.032;7.082;2022-08-19T07:30:35;28.30;;;16.53;;
4148;SDS011;2088;51.032;7.082;2022-08-19T07:33:03;35.30;;;18.20;;
4148;SDS011;2088;51.032;7.082;2022-08-19T07:35:31;30.53;;;17.73;;
4148;SDS011;2088;51.032;7.082;2022-08-19T07:37:58;66.87;;;17.63;;
4148;SDS011;2088;51.032;7.082;2022-08-19T07:40:28;32.33;;;17.47;;
4148;SDS011;2088;51.032;7.082;2022-08-19T07:42:55;30.63;;;15.60;;
4148;SDS011;2088;51.032;7.082;2022-08-19T07:45:22;26.27;;;14.40;;
4148;SDS011;2088;51.032;7.082;2022-08-19T07:47:49;29.73;;;15.30;;
4148;SDS011;2088;51.032;7.082;2022-08-19T07:50:16;30.20;;;16.37;;
4148;SDS011;2088;51.032;7.082;2022-08-19T07:52:45;26.67;;;15.83;;
4148;SDS011;2088;51.032;7.082;2022-08-19T07:55:13;25.30;;;15.23;;
4148;SDS011;2088;51.032;7.082;2022-08-19T07:57:40;22.80;;;14.33;;
4148;SDS011;2088;51.032;7.082;2022-08-19T08:00:07;21.40;;;14.10;;
4148;SDS011;2088;51.032;7.082;2022-08-19T08:02:34;21.60;;;12.27;;
4148;SDS011;2088;51.032;7.082;2022-08-19T08:05:00;26.00;;;12.80;;
4148;SDS011;2088;51.032;7.082;2022-08-19T08:07:46;34.43;;;12.60;;
4148;SDS011;2088;51.032;7.082;2022-08-19T08:10:29;22.50;;;12.67;;
4148;SDS011;2088;51.032;7.082;2022-08-19T08:12:57;21.23;;;13.77;;
4148;SDS011;2088;51.032;7.082;2022-08-19T08:15:23;24.53;;;14.27;;
4148;SDS011;2088;51.032;7.082;2022-08-19T08:17:49;23.43;;;14.83;;
4148;SDS011;2088;51.032;7.082;2022-08-19T08:20:16;18.50;;;11.93;;
4148;SDS011;2088;51.032;7.082;2022-08-19T08:22:46;22.30;;;11.80;;
4148;SDS011;2088;51.032;7.082;2022-08-19T08:25:27;26.63;;;13.63;;
4148;SDS011;2088;51.032;7.082;2022-08-19T08:27:54;23.27;;;11.60;;
4148;SDS011;2088;51.032;7.082;2022-08-19T08:30:22;14.07;;;9.50;;
4148;SDS011;2088;51.032;7.082;2022-08-19T08:32:50;19.37;;;13.30;;
4148;SDS011;2088;51.032;7.082;2022-08-19T08:35:18;17.97;;;10.97;;
4148;SDS011;2088;51.032;7.082;2022-08-19T08:37:48;14.50;;;10.10;;
4148;SDS011;2088;51.032;7.082;2022-08-19T08:40:18;15.37;;;11.23;;
4148;SDS011;2088;51.032;7.082;2022-08-19T08:42:49;19.50;;;12.83;;
4148;SDS011;2088;51.032;7.082;2022-08-19T08:45:23;21.47;;;10.37;;
4148;SDS011;2088;51.032;7.082;2022-08-19T08:47:50;25.07;;;12.67;;
4148;SDS011;2088;51.032;7.082;2022-08-19T08:50:20;17.93;;;11.63;;
4148;SDS011;2088;51.032;7.082;2022-08-19T08:52:53;22.07;;;14.00;;
4148;SDS011;2088;51.032;7.082;2022-08-19T08:55:27;20.80;;;12.07;;
4148;SDS011;2088;51.032;7.082;2022-08-19T08:57:57;20.17;;;12.80;;
4148;SDS011;2088;51.032;7.082;2022-08-19T09:00:27;22.30;;;12.83;;
4148;SDS011;2088;51.032;7.082;2022-08-19T09:02:57;21.00;;;11.40;;
4148;SDS011;2088;51.032;7.082;2022-08-19T09:05:26;19.90;;;11.10;;
4148;SDS011;2088;51.032;7.082;2022-08-19T09:08:10;35.43;;;14.67;;
4148;SDS011;2088;51.032;7.082;2022-08-19T09:10:49;29.23;;;12.80;;
4148;SDS011;2088;51.032;7.082;2022-08-19T09:13:20;23.13;;;11.17;;
4148;SDS011;2088;51.032;7.082;2022-08-19T09:15:56;27.80;;;15.07;;
4148;SDS011;2088;51.032;7.082;2022-08-19T09:18:38;36.47;;;12.23;;
4148;SDS011;2088;51.032;7.082;2022-08-19T09:21:06;20.80;;;13.13;;
4148;SDS011;2088;51.032;7.082;2022-08-19T09:23:35;17.70;;;12.43;;
4148;SDS011;2088;51.032;7.082;2022-08-19T09:26:06;19.07;;;12.17;;
4148;SDS011;2088;51.032;7.082;2022-08-19T09:28:34;29.40;;;14.50;;
4148;SDS011;2088;51.032;7.082;2022-08-19T09:31:02;24.97;;;12.97;;
4148;SDS011;2088;51.032;7.082;2022-08-19T09:33:28;21.40;;;14.77;;
4148;SDS011;2088;51.032;7.082;2022-08-19T09:36:01;19.70;;;12.57;;
4148;SDS011;2088;51.032;7.082;2022-08-19T09:38:29;25.03;;;14.13;;
4148;SDS011;2088;51.032;7.082;2022-08-19T09:41:01;20.83;;;12.53;;
4148;SDS011;2088;51.032;7.082;2022-08-19T09:43:29;23.30;;;13.37;;
4148;SDS011;2088;51.032;7.082;2022-08-19T09:45:56;23.20;;;12.90;;
4148;SDS011;2088;51.032;7.082;2022-08-19T09:48:23;24.87;;;13.30;;
4148;SDS011;2088;51.032;7.082;2022-08-19T09:50:49;25.63;;;13.83;;
4148;SDS011;2088;51.032;7.082;2022-08-19T09:53:16;26.97;;;15.57;;
4148;SDS011;2088;51.032;7.082;2022-08-19T09:55:43;21.50;;;12.73;;
4148;SDS011;2088;51.032;7.082;2022-08-19T09:58:11;22.93;;;12.87;;
4148;SDS011;2088;51.032;7.082;2022-08-19T10:00:38;26.73;;;14.87;;
4148;SDS011;2088;51.032;7.082;2022-08-19T10:03:04;20.90;;;12.20;;
4148;SDS011;2088;51.032;7.082;2022-08-19T10:05:31;20.37;;;12.70;;
4148;SDS011;2088;51.032;7.082;2022-08-19T10:08:16;24.50;;;14.50;;
4148;SDS011;2088;51.032;7.082;2022-08-19T10:10:44;21.60;;;11.93;;
4148;SDS011;2088;51.032;7.082;2022-08-19T10:13:14;21.00;;;10.10;;
4148;SDS011;2088;51.032;7.082;2022-08-19T10:15:42;22.37;;;10.77;;
4148;SDS011;2088;51.032;7.082;2022-08-19T10:18:09;21.73;;;13.67;;
4148;SDS011;2088;51.032;7.082;2022-08-19T10:20:36;22.80;;;11.97;;
4148;SDS011;2088;51.032;7.082;2022-08-19T10:23:02;18.03;;;10.70;;
4148;SDS011;2088;51.032;7.082;2022-08-19T10:25:29;13.37;;;9.10;;
4148;SDS011;2088;51.032;7.082;2022-08-19T10:27:58;13.03;;;8.37;;
4148;SDS011;2088;51.032;7.082;2022-08-19T10:30:26;17.80;;;8.33;;
4148;SDS011;2088;51.032;7.082;2022-08-19T10:32:53;13.17;;;9.50;;
4148;SDS011;2088;51.032;7.082;2022-08-19T10:35:19;11.70;;;7.80;;
4148;SDS011;2088;51.032;7.082;2022-08-19T10:37:46;16.90;;;8.13;;
4148;SDS011;2088;51.032;7.082;2022-08-19T10:40:12;23.87;;;9.60;;
4148;SDS011;2088;51.032;7.082;2022-08-19T10:42:39;14.73;;;8.23;;
4148;SDS011;2088;51.032;7.082;2022-08-19T10:45:06;12.00;;;9.43;;
4148;SDS011;2088;51.032;7.082;2022-08-19T10:47:35;9.87;;;6.20;;
4148;SDS011;2088;51.032;7.082;2022-08-19T10:50:03;11.90;;;7.13;;
4148;SDS011;2088;51.032;7.082;2022-08-19T10:52:48;14.73;;;6.83;;
4148;SDS011;2088;51.032;7.082;2022-08-19T10:55:16;16.57;;;7.00;;
4148;SDS011;2088;51.032;7.082;2022-08-19T10:58:02;9.87;;;6.30;;
4148;SDS011;2088;51.032;7.082;2022-08-19T11:00:28;14.20;;;7.70;;
4148;SDS011;2088;51.032;7.082;2022-08-19T11:02:57;12.03;;;7.37;;
4148;SDS011;2088;51.032;7.082;2022-08-19T11:05:23;9.93;;;5.87;;
4148;SDS011;2088;51.032;7.082;2022-08-19T11:07:50;10.80;;;7.67;;
4148;SDS011;2088;51.032;7.082;2022-08-19T11:10:17;16.77;;;7.83;;
4148;SDS011;2088;51.032;7.082;2022-08-19T11:12:44;14.23;;;6.60;;
4148;SDS011;2088;51.032;7.082;2022-08-19T11:15:11;11.93;;;5.67;;
4148;SDS011;2088;51.032;7.082;2022-08-19T11:17:37;9.70;;;7.27;;
4148;SDS011;2088;51.032;7.082;2022-08-19T11:20:09;12.33;;;8.43;;
4148;SDS011;2088;51.032;7.082;2022-08-19T11:22:37;10.47;;;6.33;;
4148;SDS011;2088;51.032;7.082;2022-08-19T11:25:04;9.87;;;5.67;;
4148;SDS011;2088;51.032;7.082;2022-08-19T11:27:31;10.73;;;5.00;;
4148;SDS011;2088;51.032;7.082;2022-08-19T11:29:58;9.40;;;5.27;;
4148;SDS011;2088;51.032;7.082;2022-08-19T11:32:25;6.70;;;5.73;;
4148;SDS011;2088;51.032;7.082;2022-08-19T11:34:52;8.40;;;5.23;;
4148;SDS011;2088;51.032;7.082;2022-08-19T11:37:20;11.20;;;6.40;;
4148;SDS011;2088;51.032;7.082;2022-08-19T11:39:47;8.50;;;5.60;;
4148;SDS011;2088;51.032;7.082;2022-08-19T11:42:13;5.70;;;4.07;;
4148;SDS011;2088;51.032;7.082;2022-08-19T11:44:57;8.33;;;4.60;;
4148;SDS011;2088;51.032;7.082;2022-08-19T11:47:24;8.50;;;4.97;;
4148;SDS011;2088;51.032;7.082;2022-08-19T11:49:51;15.30;;;7.30;;
4148;SDS011;2088;51.032;7.082;2022-08-19T11:52:18;10.73;;;6.20;;
4148;SDS011;2088;51.032;7.082;2022-08-19T11:54:46;7.20;;;4.60;;
4148;SDS011;2088;51.032;7.082;2022-08-19T11:57:13;10.63;;;5.63;;
4148;SDS011;2088;51.032;7.082;2022-08-19T11:59:41;14.83;;;6.87;;
4148;SDS011;2088;51.032;7.082;2022-08-19T12:02:08;6.43;;;4.73;;
4148;SDS011;2088;51.032;7.082;2022-08-19T12:04:35;7.23;;;4.50;;
4148;SDS011;2088;51.032;7.082;2022-08-19T12:07:02;8.13;;;4.47;;
4148;SDS011;2088;51.032;7.082;2022-08-19T12:09:29;37.37;;;6.23;;
4148;SDS011;2088;51.032;7.082;2022-08-19T12:12:00;8.60;;;4.60;;
4148;SDS011;2088;51.032;7.082;2022-08-19T12:14:27;9.10;;;5.63;;
4148;SDS011;2088;51.032;7.082;2022-08-19T12:16:55;7.90;;;4.67;;
4148;SDS011;2088;51.032;7.082;2022-08-19T12:19:22;6.03;;;4.77;;
4148;SDS011;2088;51.032;7.082;2022-08-19T12:21:49;6.53;;;4.23;;
4148;SDS011;2088;51.032;7.082;2022-08-19T12:24:18;7.77;;;6.47;;
4148;SDS011;2088;51.032;7.082;2022-08-19T12:26:48;8.23;;;5.67;;
4148;SDS011;2088;51.032;7.082;2022-08-19T12:29:16;5.37;;;4.27;;
4148;SDS011;2088;51.032;7.082;2022-08-19T12:31:42;5.53;;;4.60;;
4148;SDS011;2088;51.032;7.082;2022-08-19T12:34:09;9.07;;;6.00;;
4148;SDS011;2088;51.032;7.082;2022-08-19T12:36:35;10.13;;;4.80;;
4148;SDS011;2088;51.032;7.082;2022-08-19T12:39:02;3.80;;;3.47;;
4148;SDS011;2088;51.032;7.082;2022-08-19T12:41:31;4.47;;;3.30;;
4148;SDS011;2088;51.032;7.082;2022-08-19T12:43:57;5.53;;;3.80;;
4148;SDS011;2088;51.032;7.082;2022-08-19T12:46:26;10.83;;;3.90;;
4148;SDS011;2088;51.032;7.082;2022-08-19T12:48:52;6.27;;;3.30;;
4148;SDS011;2088;51.032;7.082;2022-08-19T12:51:19;5.20;;;3.30;;
4148;SDS011;2088;51.032;7.082;2022-08-19T12:53:46;5.40;;;4.10;;
4148;SDS011;2088;51.032;7.082;2022-08-19T12:56:14;5.20;;;3.57;;
4148;SDS011;2088;51.032;7.082;2022-08-19T12:58:42;10.33;;;3.60;;
4148;SDS011;2088;51.032;7.082;2022-08-19T13:01:09;5.53;;;4.03;;
4148;SDS011;2088;51.032;7.082;2022-08-19T13:03:38;12.33;;;4.80;;
4148;SDS011;2088;51.032;7.082;2022-08-19T13:06:05;3.57;;;3.27;;
4148;SDS011;2088;51.032;7.082;2022-08-19T13:08:32;3.97;;;3.57;;
4148;SDS011;2088;51.032;7.082;2022-08-19T13:11:06;13.37;;;4.30;;
4148;SDS011;2088;51.032;7.082;2022-08-19T13:13:33;5.00;;;4.10;;
4148;SDS011;2088;51.032;7.082;2022-08-19T13:16:00;8.20;;;5.00;;
4148;SDS011;2088;51.032;7.082;2022-08-19T13:18:28;10.57;;;2.97;;
4148;SDS011;2088;51.032;7.082;2022-08-19T13:20:55;4.97;;;3.60;;
4148;SDS011;2088;51.032;7.082;2022-08-19T13:23:22;5.53;;;3.83;;
4148;SDS011;2088;51.032;7.082;2022-08-19T13:25:55;6.93;;;2.80;;
4148;SDS011;2088;51.032;7.082;2022-08-19T13:28:22;6.30;;;3.10;;
4148;SDS011;2088;51.032;7.082;2022-08-19T13:30:48;22.17;;;3.97;;
4148;SDS011;2088;51.032;7.082;2022-08-19T13:33:32;5.23;;;3.40;;
4148;SDS011;2088;51.032;7.082;2022-08-19T13:36:00;4.50;;;3.10;;
4148;SDS011;2088;51.032;7.082;2022-08-19T13:38:29;2.93;;;2.20;;
4148;SDS011;2088;51.032;7.082;2022-08-19T13:40:55;4.70;;;2.93;;
4148;SDS011;2088;51.032;7.082;2022-08-19T13:43:23;4.13;;;3.33;;
4148;SDS011;2088;51.032;7.082;2022-08-19T13:45:52;3.87;;;3.23;;
4148;SDS011;2088;51.032;7.082;2022-08-19T13:48:21;3.40;;;2.97;;
4148;SDS011;2088;51.032;7.082;2022-08-19T13:50:48;6.50;;;2.97;;
4148;SDS011;2088;51.032;7.082;2022-08-19T13:53:16;4.63;;;3.57;;
4148;SDS011;2088;51.032;7.082;2022-08-19T13:55:43;6.73;;;4.37;;
4148;SDS011;2088;51.032;7.082;2022-08-19T13:58:11;5.10;;;2.90;;
4148;SDS011;2088;51.032;7.082;2022-08-19T14:00:39;4.17;;;3.33;;
4148;SDS011;2088;51.032;7.082;2022-08-19T14:03:07;6.77;;;3.73;;
4148;SDS011;2088;51.032;7.082;2022-08-19T14:05:34;5.00;;;3.63;;
4148;SDS011;2088;51.032;7.082;2022-08-19T14:08:01;5.03;;;3.30;;
4148;SDS011;2088;51.032;7.082;2022-08-19T14:10:29;8.23;;;3.07;;
4148;SDS011;2088;51.032;7.082;2022-08-19T14:12:57;2.37;;;1.90;;
4148;SDS011;2088;51.032;7.082;2022-08-19T14:15:26;7.80;;;2.37;;
4148;SDS011;2088;51.032;7.082;2022-08-19T14:17:53;4.03;;;2.30;;
4148;SDS011;2088;51.032;7.082;2022-08-19T14:20:20;4.40;;;3.00;;
4148;SDS011;2088;51.032;7.082;2022-08-19T14:22:47;2.93;;;1.73;;
4148;SDS011;2088;51.032;7.082;2022-08-19T14:25:16;11.63;;;4.10;;
4148;SDS011;2088;51.032;7.082;2022-08-19T14:27:47;6.07;;;3.80;;
4148;SDS011;2088;51.032;7.082;2022-08-19T14:30:15;2.90;;;2.17;;
4148;SDS011;2088;51.032;7.082;2022-08-19T14:32:44;5.13;;;3.30;;
4148;SDS011;2088;51.032;7.082;2022-08-19T14:35:11;3.83;;;2.30;;
4148;SDS011;2088;51.032;7.082;2022-08-19T14:37:40;3.17;;;2.47;;
4148;SDS011;2088;51.032;7.082;2022-08-19T14:40:07;4.10;;;2.27;;
4148;SDS011;2088;51.032;7.082;2022-08-19T14:42:35;2.93;;;2.07;;
4148;SDS011;2088;51.032;7.082;2022-08-19T14:45:03;2.60;;;1.90;;
4148;SDS011;2088;51.032;7.082;2022-08-19T14:47:31;2.83;;;1.90;;
4148;SDS011;2088;51.032;7.082;2022-08-19T14:49:57;3.00;;;2.57;;
4148;SDS011;2088;51.032;7.082;2022-08-19T14:52:24;6.90;;;4.13;;
4148;SDS011;2088;51.032;7.082;2022-08-19T14:54:50;2.80;;;1.63;;
4148;SDS011;2088;51.032;7.082;2022-08-19T14:57:17;2.83;;;1.90;;
4148;SDS011;2088;51.032;7.082;2022-08-19T14:59:45;3.03;;;2.33;;
4148;SDS011;2088;51.032;7.082;2022-08-19T15:02:13;3.97;;;2.27;;
4148;SDS011;2088;51.032;7.082;2022-08-19T15:04:39;2.47;;;1.73;;
4148;SDS011;2088;51.032;7.082;2022-08-19T15:07:06;4.13;;;1.70;;